sensor_id;sensor_type;location;lat;lon;timestamp;temperature;humidity
43808;DHT22;29438;50.664;10.098;2022-07-29T00:00:45;16.50;57.60
43808;DHT22;29438;50.664;10.098;2022-07-29T00:03:11;16.50;58.00
43808;DHT22;29438;50.664;10.098;2022-07-29T00:05:39;16.50;57.80
43808;DHT22;29438;50.664;10.098;2022-07-29T00:08:05;16.60;57.70
43808;DHT22;29438;50.664;10.098;2022-07-29T00:10:30;16.60;58.50
43808;DHT22;29438;50.664;10.098;2022-07-29T00:12:56;16.50;57.80
43808;DHT22;29438;50.664;10.098;2022-07-29T00:15:21;16.60;58.30
43808;DHT22;29438;50.664;10.098;2022-07-29T00:17:47;16.60;57.90
43808;DHT22;29438;50.664;10.098;2022-07-29T00:20:12;16.60;58.30
43808;DHT22;29438;50.664;10.098;2022-07-29T00:22:39;16.60;58.40
43808;DHT22;29438;50.664;10.098;2022-07-29T00:25:05;16.60;58.70
43808;DHT22;29438;50.664;10.098;2022-07-29T00:27:30;16.50;59.10
43808;DHT22;29438;50.664;10.098;2022-07-29T00:29:56;16.40;59.60
43808;DHT22;29438;50.664;10.098;2022-07-29T00:32:21;16.30;58.10
43808;DHT22;29438;50.664;10.098;2022-07-29T00:34:47;16.20;58.30
43808;DHT22;29438;50.664;10.098;2022-07-29T00:37:31;16.20;60.90
43808;DHT22;29438;50.664;10.098;2022-07-29T00:39:56;16.00;61.80
43808;DHT22;29438;50.664;10.098;2022-07-29T00:42:22;16.00;61.00
43808;DHT22;29438;50.664;10.098;2022-07-29T00:44:47;16.00;61.00
43808;DHT22;29438;50.664;10.098;2022-07-29T00:47:13;16.00;61.00
43808;DHT22;29438;50.664;10.098;2022-07-29T00:49:40;16.00;62.50
43808;DHT22;29438;50.664;10.098;2022-07-29T00:52:07;16.00;62.30
43808;DHT22;29438;50.664;10.098;2022-07-29T00:54:34;16.00;61.80
43808;DHT22;29438;50.664;10.098;2022-07-29T00:57:00;15.90;61.20
43808;DHT22;29438;50.664;10.098;2022-07-29T00:59:26;16.00;62.20
43808;DHT22;29438;50.664;10.098;2022-07-29T01:01:53;16.00;61.20
43808;DHT22;29438;50.664;10.098;2022-07-29T01:04:20;16.10;60.80
43808;DHT22;29438;50.664;10.098;2022-07-29T01:06:47;16.10;60.00
43808;DHT22;29438;50.664;10.098;2022-07-29T01:09:14;16.20;60.00
43808;DHT22;29438;50.664;10.098;2022-07-29T01:11:40;16.20;60.70
43808;DHT22;29438;50.664;10.098;2022-07-29T01:14:07;16.20;61.10
43808;DHT22;29438;50.664;10.098;2022-07-29T01:16:51;16.10;60.70
43808;DHT22;29438;50.664;10.098;2022-07-29T01:28:17;16.10;61.20
43808;DHT22;29438;50.664;10.098;2022-07-29T01:30:51;16.20;60.80
43808;DHT22;29438;50.664;10.098;2022-07-29T01:33:17;16.20;60.60
43808;DHT22;29438;50.664;10.098;2022-07-29T01:36:09;16.20;59.80
43808;DHT22;29438;50.664;10.098;2022-07-29T01:38:39;16.20;60.80
43808;DHT22;29438;50.664;10.098;2022-07-29T01:41:09;16.20;60.50
43808;DHT22;29438;50.664;10.098;2022-07-29T01:43:57;16.20;60.40
43808;DHT22;29438;50.664;10.098;2022-07-29T01:46:31;16.30;60.40
43808;DHT22;29438;50.664;10.098;2022-07-29T01:49:13;16.20;59.90
43808;DHT22;29438;50.664;10.098;2022-07-29T01:51:46;16.20;60.20
43808;DHT22;29438;50.664;10.098;2022-07-29T01:54:21;16.20;60.20
43808;DHT22;29438;50.664;10.098;2022-07-29T01:56:51;16.10;60.80
43808;DHT22;29438;50.664;10.098;2022-07-29T01:59:20;16.00;62.10
43808;DHT22;29438;50.664;10.098;2022-07-29T02:01:47;16.00;60.70
43808;DHT22;29438;50.664;10.098;2022-07-29T02:04:15;15.90;60.70
43808;DHT22;29438;50.664;10.098;2022-07-29T02:06:43;15.90;62.00
43808;DHT22;29438;50.664;10.098;2022-07-29T02:09:11;15.90;61.50
43808;DHT22;29438;50.664;10.098;2022-07-29T02:11:39;15.70;60.40
43808;DHT22;29438;50.664;10.098;2022-07-29T02:14:07;15.80;60.80
43808;DHT22;29438;50.664;10.098;2022-07-29T02:16:35;15.80;61.90
43808;DHT22;29438;50.664;10.098;2022-07-29T02:19:02;15.80;61.90
43808;DHT22;29438;50.664;10.098;2022-07-29T02:21:30;15.70;62.20
43808;DHT22;29438;50.664;10.098;2022-07-29T02:23:59;15.70;62.10
43808;DHT22;29438;50.664;10.098;2022-07-29T02:26:26;15.70;62.60
43808;DHT22;29438;50.664;10.098;2022-07-29T02:28:56;15.60;62.00
43808;DHT22;29438;50.664;10.098;2022-07-29T02:31:25;15.60;61.70
43808;DHT22;29438;50.664;10.098;2022-07-29T02:33:52;15.50;62.00
43808;DHT22;29438;50.664;10.098;2022-07-29T02:36:21;15.50;61.90
43808;DHT22;29438;50.664;10.098;2022-07-29T02:38:48;15.50;62.40
43808;DHT22;29438;50.664;10.098;2022-07-29T02:41:26;15.50;63.00
43808;DHT22;29438;50.664;10.098;2022-07-29T02:43:55;15.30;62.90
43808;DHT22;29438;50.664;10.098;2022-07-29T02:46:29;15.30;62.90
43808;DHT22;29438;50.664;10.098;2022-07-29T02:49:18;15.30;62.30
43808;DHT22;29438;50.664;10.098;2022-07-29T02:51:57;15.30;61.90
43808;DHT22;29438;50.664;10.098;2022-07-29T02:54:56;15.30;62.60
43808;DHT22;29438;50.664;10.098;2022-07-29T02:57:46;15.30;62.10
43808;DHT22;29438;50.664;10.098;2022-07-29T03:00:14;15.30;61.70
43808;DHT22;29438;50.664;10.098;2022-07-29T03:02:44;15.20;61.60
43808;DHT22;29438;50.664;10.098;2022-07-29T03:05:14;15.20;62.40
43808;DHT22;29438;50.664;10.098;2022-07-29T03:07:41;15.00;63.40
43808;DHT22;29438;50.664;10.098;2022-07-29T03:10:09;14.90;63.50
43808;DHT22;29438;50.664;10.098;2022-07-29T03:12:35;14.80;63.70
43808;DHT22;29438;50.664;10.098;2022-07-29T03:15:01;14.70;63.90
43808;DHT22;29438;50.664;10.098;2022-07-29T03:17:27;14.50;63.70
43808;DHT22;29438;50.664;10.098;2022-07-29T03:19:53;14.50;64.60
43808;DHT22;29438;50.664;10.098;2022-07-29T03:22:20;14.40;63.80
43808;DHT22;29438;50.664;10.098;2022-07-29T03:24:45;14.40;64.60
43808;DHT22;29438;50.664;10.098;2022-07-29T03:27:11;14.40;64.70
43808;DHT22;29438;50.664;10.098;2022-07-29T03:29:37;14.30;65.20
43808;DHT22;29438;50.664;10.098;2022-07-29T03:32:04;14.20;65.20
43808;DHT22;29438;50.664;10.098;2022-07-29T03:34:30;14.20;65.30
43808;DHT22;29438;50.664;10.098;2022-07-29T03:36:56;14.20;65.30
43808;DHT22;29438;50.664;10.098;2022-07-29T03:39:24;14.20;65.20
43808;DHT22;29438;50.664;10.098;2022-07-29T03:41:54;14.20;65.60
43808;DHT22;29438;50.664;10.098;2022-07-29T03:44:21;14.00;65.70
43808;DHT22;29438;50.664;10.098;2022-07-29T03:46:48;13.90;66.20
43808;DHT22;29438;50.664;10.098;2022-07-29T03:49:16;14.00;66.50
43808;DHT22;29438;50.664;10.098;2022-07-29T03:51:43;14.00;66.20
43808;DHT22;29438;50.664;10.098;2022-07-29T03:54:09;14.00;66.50
43808;DHT22;29438;50.664;10.098;2022-07-29T03:56:38;14.00;66.30
43808;DHT22;29438;50.664;10.098;2022-07-29T03:59:05;14.10;66.10
43808;DHT22;29438;50.664;10.098;2022-07-29T04:01:33;14.10;66.10
43808;DHT22;29438;50.664;10.098;2022-07-29T04:04:00;14.00;66.30
43808;DHT22;29438;50.664;10.098;2022-07-29T04:06:25;14.00;66.40
43808;DHT22;29438;50.664;10.098;2022-07-29T04:08:51;13.90;66.10
43808;DHT22;29438;50.664;10.098;2022-07-29T04:11:17;14.00;66.40
43808;DHT22;29438;50.664;10.098;2022-07-29T04:13:42;13.90;66.40
43808;DHT22;29438;50.664;10.098;2022-07-29T04:16:08;14.00;66.20
43808;DHT22;29438;50.664;10.098;2022-07-29T04:18:33;14.00;66.10
43808;DHT22;29438;50.664;10.098;2022-07-29T04:20:59;14.10;65.50
43808;DHT22;29438;50.664;10.098;2022-07-29T04:23:26;14.20;64.80
43808;DHT22;29438;50.664;10.098;2022-07-29T04:25:52;14.20;64.80
43808;DHT22;29438;50.664;10.098;2022-07-29T04:28:17;14.30;65.30
43808;DHT22;29438;50.664;10.098;2022-07-29T04:30:43;14.50;64.10
43808;DHT22;29438;50.664;10.098;2022-07-29T04:33:08;15.00;63.70
43808;DHT22;29438;50.664;10.098;2022-07-29T04:35:38;15.50;63.00
43808;DHT22;29438;50.664;10.098;2022-07-29T04:38:04;16.90;59.90
43808;DHT22;29438;50.664;10.098;2022-07-29T04:40:30;18.60;54.70
43808;DHT22;29438;50.664;10.098;2022-07-29T04:42:58;20.10;49.50
43808;DHT22;29438;50.664;10.098;2022-07-29T04:45:24;20.30;47.50
43808;DHT22;29438;50.664;10.098;2022-07-29T04:47:50;19.40;49.60
43808;DHT22;29438;50.664;10.098;2022-07-29T04:50:15;19.20;50.80
43808;DHT22;29438;50.664;10.098;2022-07-29T04:52:41;19.10;52.10
43808;DHT22;29438;50.664;10.098;2022-07-29T04:55:06;19.20;51.20
43808;DHT22;29438;50.664;10.098;2022-07-29T04:57:32;19.60;51.30
43808;DHT22;29438;50.664;10.098;2022-07-29T04:59:57;19.40;50.30
43808;DHT22;29438;50.664;10.098;2022-07-29T05:02:23;19.00;52.00
43808;DHT22;29438;50.664;10.098;2022-07-29T05:04:49;18.90;52.70
43808;DHT22;29438;50.664;10.098;2022-07-29T05:07:14;20.20;51.50
43808;DHT22;29438;50.664;10.098;2022-07-29T05:09:40;23.50;44.00
43808;DHT22;29438;50.664;10.098;2022-07-29T05:12:06;26.50;38.10
43808;DHT22;29438;50.664;10.098;2022-07-29T05:14:32;28.70;33.80
43808;DHT22;29438;50.664;10.098;2022-07-29T05:16:57;29.80;31.10
43808;DHT22;29438;50.664;10.098;2022-07-29T05:19:23;30.60;30.00
43808;DHT22;29438;50.664;10.098;2022-07-29T05:21:49;30.10;30.10
43808;DHT22;29438;50.664;10.098;2022-07-29T05:24:15;29.10;30.80
43808;DHT22;29438;50.664;10.098;2022-07-29T05:26:40;26.20;35.10
43808;DHT22;29438;50.664;10.098;2022-07-29T05:29:06;25.80;36.00
43808;DHT22;29438;50.664;10.098;2022-07-29T05:31:31;28.20;32.70
43808;DHT22;29438;50.664;10.098;2022-07-29T05:33:57;30.50;29.50
43808;DHT22;29438;50.664;10.098;2022-07-29T05:36:22;31.90;27.70
43808;DHT22;29438;50.664;10.098;2022-07-29T05:38:48;29.90;29.60
43808;DHT22;29438;50.664;10.098;2022-07-29T05:41:13;26.70;33.50
43808;DHT22;29438;50.664;10.098;2022-07-29T05:43:39;23.50;38.70
43808;DHT22;29438;50.664;10.098;2022-07-29T05:46:04;21.40;44.20
43808;DHT22;29438;50.664;10.098;2022-07-29T05:48:30;20.20;46.00
43808;DHT22;29438;50.664;10.098;2022-07-29T05:50:55;19.50;49.80
43808;DHT22;29438;50.664;10.098;2022-07-29T05:53:21;19.00;52.10
43808;DHT22;29438;50.664;10.098;2022-07-29T05:55:50;18.80;51.50
43808;DHT22;29438;50.664;10.098;2022-07-29T05:58:16;20.10;50.70
43808;DHT22;29438;50.664;10.098;2022-07-29T06:00:41;24.20;42.00
43808;DHT22;29438;50.664;10.098;2022-07-29T06:03:07;26.70;36.30
43808;DHT22;29438;50.664;10.098;2022-07-29T06:05:33;28.30;33.90
43808;DHT22;29438;50.664;10.098;2022-07-29T06:07:58;30.70;29.70
43808;DHT22;29438;50.664;10.098;2022-07-29T06:10:24;30.90;28.60
43808;DHT22;29438;50.664;10.098;2022-07-29T06:12:49;30.50;28.10
43808;DHT22;29438;50.664;10.098;2022-07-29T06:15:15;29.80;28.70
43808;DHT22;29438;50.664;10.098;2022-07-29T06:17:41;31.10;28.50
43808;DHT22;29438;50.664;10.098;2022-07-29T06:20:06;30.10;29.50
43808;DHT22;29438;50.664;10.098;2022-07-29T06:22:32;28.20;32.70
43808;DHT22;29438;50.664;10.098;2022-07-29T06:24:58;27.60;33.40
43808;DHT22;29438;50.664;10.098;2022-07-29T06:27:23;25.70;36.10
43808;DHT22;29438;50.664;10.098;2022-07-29T06:29:48;24.60;39.30
43808;DHT22;29438;50.664;10.098;2022-07-29T06:32:14;23.50;41.40
43808;DHT22;29438;50.664;10.098;2022-07-29T06:34:39;23.20;42.50
43808;DHT22;29438;50.664;10.098;2022-07-29T06:37:08;23.30;42.30
43808;DHT22;29438;50.664;10.098;2022-07-29T06:39:35;23.20;42.80
43808;DHT22;29438;50.664;10.098;2022-07-29T06:42:02;23.60;42.10
43808;DHT22;29438;50.664;10.098;2022-07-29T06:44:27;24.20;41.80
43808;DHT22;29438;50.664;10.098;2022-07-29T06:46:53;25.40;40.50
43808;DHT22;29438;50.664;10.098;2022-07-29T06:49:19;27.20;36.50
43808;DHT22;29438;50.664;10.098;2022-07-29T06:51:45;26.30;37.60
43808;DHT22;29438;50.664;10.098;2022-07-29T06:54:11;26.20;36.80
43808;DHT22;29438;50.664;10.098;2022-07-29T06:56:36;25.60;37.40
43808;DHT22;29438;50.664;10.098;2022-07-29T06:59:03;25.20;38.20
43808;DHT22;29438;50.664;10.098;2022-07-29T07:01:28;24.40;38.00
43808;DHT22;29438;50.664;10.098;2022-07-29T07:03:54;23.50;40.40
43808;DHT22;29438;50.664;10.098;2022-07-29T07:06:20;23.50;40.80
43808;DHT22;29438;50.664;10.098;2022-07-29T07:08:45;23.40;41.50
43808;DHT22;29438;50.664;10.098;2022-07-29T07:11:11;23.10;41.00
43808;DHT22;29438;50.664;10.098;2022-07-29T07:13:36;22.90;41.50
43808;DHT22;29438;50.664;10.098;2022-07-29T07:16:02;22.20;43.10
43808;DHT22;29438;50.664;10.098;2022-07-29T07:18:28;22.10;43.50
43808;DHT22;29438;50.664;10.098;2022-07-29T07:20:53;21.90;45.00
43808;DHT22;29438;50.664;10.098;2022-07-29T07:23:19;21.80;45.20
43808;DHT22;29438;50.664;10.098;2022-07-29T07:25:44;21.70;46.70
43808;DHT22;29438;50.664;10.098;2022-07-29T07:28:10;21.20;47.70
43808;DHT22;29438;50.664;10.098;2022-07-29T07:30:36;20.80;49.70
43808;DHT22;29438;50.664;10.098;2022-07-29T07:33:01;20.40;51.10
43808;DHT22;29438;50.664;10.098;2022-07-29T07:35:27;20.00;52.70
43808;DHT22;29438;50.664;10.098;2022-07-29T07:37:55;19.80;54.20
43808;DHT22;29438;50.664;10.098;2022-07-29T07:40:20;19.60;55.50
43808;DHT22;29438;50.664;10.098;2022-07-29T07:42:46;19.70;59.60
43808;DHT22;29438;50.664;10.098;2022-07-29T07:45:12;19.70;58.60
43808;DHT22;29438;50.664;10.098;2022-07-29T07:47:38;19.90;63.30
43808;DHT22;29438;50.664;10.098;2022-07-29T07:50:09;20.20;60.90
43808;DHT22;29438;50.664;10.098;2022-07-29T07:52:37;20.20;62.30
43808;DHT22;29438;50.664;10.098;2022-07-29T07:55:10;20.30;59.70
43808;DHT22;29438;50.664;10.098;2022-07-29T07:57:36;20.30;59.40
43808;DHT22;29438;50.664;10.098;2022-07-29T08:00:02;20.30;58.10
43808;DHT22;29438;50.664;10.098;2022-07-29T08:02:27;20.50;59.30
43808;DHT22;29438;50.664;10.098;2022-07-29T08:04:53;20.60;56.50
43808;DHT22;29438;50.664;10.098;2022-07-29T08:07:18;20.70;53.60
43808;DHT22;29438;50.664;10.098;2022-07-29T08:09:44;20.90;54.10
43808;DHT22;29438;50.664;10.098;2022-07-29T08:15:34;22.20;51.50
43808;DHT22;29438;50.664;10.098;2022-07-29T08:17:59;22.40;51.60
43808;DHT22;29438;50.664;10.098;2022-07-29T08:20:25;22.60;51.30
43808;DHT22;29438;50.664;10.098;2022-07-29T08:22:51;23.00;48.50
43808;DHT22;29438;50.664;10.098;2022-07-29T08:25:17;23.30;47.20
43808;DHT22;29438;50.664;10.098;2022-07-29T08:27:48;22.80;47.70
43808;DHT22;29438;50.664;10.098;2022-07-29T08:30:14;22.40;48.50
43808;DHT22;29438;50.664;10.098;2022-07-29T08:32:39;22.70;48.60
43808;DHT22;29438;50.664;10.098;2022-07-29T08:35:05;22.80;46.10
43808;DHT22;29438;50.664;10.098;2022-07-29T08:37:31;22.70;48.10
43808;DHT22;29438;50.664;10.098;2022-07-29T08:39:56;22.00;47.00
43808;DHT22;29438;50.664;10.098;2022-07-29T08:42:22;21.60;48.10
43808;DHT22;29438;50.664;10.098;2022-07-29T08:44:48;21.30;48.70
43808;DHT22;29438;50.664;10.098;2022-07-29T08:47:14;21.30;51.50
43808;DHT22;29438;50.664;10.098;2022-07-29T08:49:40;21.20;53.30
43808;DHT22;29438;50.664;10.098;2022-07-29T08:52:06;21.00;51.40
43808;DHT22;29438;50.664;10.098;2022-07-29T08:54:32;21.00;53.30
43808;DHT22;29438;50.664;10.098;2022-07-29T08:56:58;20.80;51.30
43808;DHT22;29438;50.664;10.098;2022-07-29T08:59:26;20.60;53.40
43808;DHT22;29438;50.664;10.098;2022-07-29T09:01:53;20.30;54.20
43808;DHT22;29438;50.664;10.098;2022-07-29T09:04:20;19.90;59.90
43808;DHT22;29438;50.664;10.098;2022-07-29T09:06:49;19.50;62.10
43808;DHT22;29438;50.664;10.098;2022-07-29T09:09:16;19.30;65.40
43808;DHT22;29438;50.664;10.098;2022-07-29T09:11:42;18.80;69.50
43808;DHT22;29438;50.664;10.098;2022-07-29T09:14:08;18.50;73.40
43808;DHT22;29438;50.664;10.098;2022-07-29T09:16:47;18.40;75.00
43808;DHT22;29438;50.664;10.098;2022-07-29T09:19:31;18.30;75.60
43808;DHT22;29438;50.664;10.098;2022-07-29T09:21:59;18.40;78.10
43808;DHT22;29438;50.664;10.098;2022-07-29T09:24:27;18.40;78.40
43808;DHT22;29438;50.664;10.098;2022-07-29T09:27:00;18.40;78.60
43808;DHT22;29438;50.664;10.098;2022-07-29T09:29:27;18.50;79.50
43808;DHT22;29438;50.664;10.098;2022-07-29T09:31:54;18.60;78.80
43808;DHT22;29438;50.664;10.098;2022-07-29T09:34:27;18.30;78.40
43808;DHT22;29438;50.664;10.098;2022-07-29T09:36:54;18.30;79.70
43808;DHT22;29438;50.664;10.098;2022-07-29T09:39:28;18.80;80.70
43808;DHT22;29438;50.664;10.098;2022-07-29T09:41:55;19.20;80.30
43808;DHT22;29438;50.664;10.098;2022-07-29T09:44:21;19.60;78.40
43808;DHT22;29438;50.664;10.098;2022-07-29T09:46:54;19.70;78.00
43808;DHT22;29438;50.664;10.098;2022-07-29T09:49:20;19.80;75.20
43808;DHT22;29438;50.664;10.098;2022-07-29T09:51:45;20.20;74.50
43808;DHT22;29438;50.664;10.098;2022-07-29T09:54:25;20.30;74.20
43808;DHT22;29438;50.664;10.098;2022-07-29T09:56:52;21.10;71.30
43808;DHT22;29438;50.664;10.098;2022-07-29T09:59:18;21.60;69.10
43808;DHT22;29438;50.664;10.098;2022-07-29T10:01:45;21.90;65.90
43808;DHT22;29438;50.664;10.098;2022-07-29T10:04:11;22.00;65.70
43808;DHT22;29438;50.664;10.098;2022-07-29T10:06:55;21.90;68.40
43808;DHT22;29438;50.664;10.098;2022-07-29T10:09:21;22.00;65.90
43808;DHT22;29438;50.664;10.098;2022-07-29T10:12:03;21.70;67.10
43808;DHT22;29438;50.664;10.098;2022-07-29T10:14:31;21.60;66.10
43808;DHT22;29438;50.664;10.098;2022-07-29T10:16:59;21.30;68.20
43808;DHT22;29438;50.664;10.098;2022-07-29T10:19:31;21.00;68.90
43808;DHT22;29438;50.664;10.098;2022-07-29T10:21:58;20.80;68.80
43808;DHT22;29438;50.664;10.098;2022-07-29T10:24:26;20.70;69.20
43808;DHT22;29438;50.664;10.098;2022-07-29T10:26:54;20.70;69.70
43808;DHT22;29438;50.664;10.098;2022-07-29T10:29:20;20.70;69.10
43808;DHT22;29438;50.664;10.098;2022-07-29T10:31:57;20.90;67.60
43808;DHT22;29438;50.664;10.098;2022-07-29T10:37:12;21.20;62.50
43808;DHT22;29438;50.664;10.098;2022-07-29T10:40:11;21.70;63.70
43808;DHT22;29438;50.664;10.098;2022-07-29T10:43:28;22.00;62.80
43808;DHT22;29438;50.664;10.098;2022-07-29T10:45:57;21.90;62.50
43808;DHT22;29438;50.664;10.098;2022-07-29T10:48:23;22.40;65.70
43808;DHT22;29438;50.664;10.098;2022-07-29T10:53:19;22.70;58.60
43808;DHT22;29438;50.664;10.098;2022-07-29T10:55:44;23.30;55.50
43808;DHT22;29438;50.664;10.098;2022-07-29T10:58:20;23.60;55.60
43808;DHT22;29438;50.664;10.098;2022-07-29T11:00:47;23.20;58.30
43808;DHT22;29438;50.664;10.098;2022-07-29T11:03:47;23.90;55.20
43808;DHT22;29438;50.664;10.098;2022-07-29T11:06:14;24.40;54.90
43808;DHT22;29438;50.664;10.098;2022-07-29T11:08:40;24.10;56.60
43808;DHT22;29438;50.664;10.098;2022-07-29T11:11:31;24.00;54.40
43808;DHT22;29438;50.664;10.098;2022-07-29T11:13:57;24.50;54.00
43808;DHT22;29438;50.664;10.098;2022-07-29T11:16:23;24.60;56.90
43808;DHT22;29438;50.664;10.098;2022-07-29T11:21:36;24.80;54.80
43808;DHT22;29438;50.664;10.098;2022-07-29T11:24:12;25.20;53.40
43808;DHT22;29438;50.664;10.098;2022-07-29T11:26:38;25.80;53.30
43808;DHT22;29438;50.664;10.098;2022-07-29T11:29:18;25.30;52.80
43808;DHT22;29438;50.664;10.098;2022-07-29T11:31:46;25.00;51.60
43808;DHT22;29438;50.664;10.098;2022-07-29T11:39:39;25.20;54.70
43808;DHT22;29438;50.664;10.098;2022-07-29T11:47:24;25.20;50.00
43808;DHT22;29438;50.664;10.098;2022-07-29T11:49:54;25.50;49.60
43808;DHT22;29438;50.664;10.098;2022-07-29T11:52:20;26.00;51.50
43808;DHT22;29438;50.664;10.098;2022-07-29T11:54:50;26.20;49.40
43808;DHT22;29438;50.664;10.098;2022-07-29T11:57:17;26.10;49.70
43808;DHT22;29438;50.664;10.098;2022-07-29T11:59:45;26.40;48.80
43808;DHT22;29438;50.664;10.098;2022-07-29T12:02:12;26.40;48.20
43808;DHT22;29438;50.664;10.098;2022-07-29T12:04:52;25.70;49.60
43808;DHT22;29438;50.664;10.098;2022-07-29T12:07:18;25.40;49.60
43808;DHT22;29438;50.664;10.098;2022-07-29T12:09:51;25.50;50.70
43808;DHT22;29438;50.664;10.098;2022-07-29T12:12:17;25.80;48.50
43808;DHT22;29438;50.664;10.098;2022-07-29T12:14:44;26.20;47.30
43808;DHT22;29438;50.664;10.098;2022-07-29T12:17:33;26.10;46.30
43808;DHT22;29438;50.664;10.098;2022-07-29T12:20:03;26.60;46.40
43808;DHT22;29438;50.664;10.098;2022-07-29T12:22:34;27.00;44.30
43808;DHT22;29438;50.664;10.098;2022-07-29T12:25:04;26.50;45.20
43808;DHT22;29438;50.664;10.098;2022-07-29T12:27:30;26.20;46.10
43808;DHT22;29438;50.664;10.098;2022-07-29T12:29:58;26.50;45.60
43808;DHT22;29438;50.664;10.098;2022-07-29T12:32:31;26.40;46.10
43808;DHT22;29438;50.664;10.098;2022-07-29T12:34:57;26.60;46.40
43808;DHT22;29438;50.664;10.098;2022-07-29T12:37:23;27.00;43.60
43808;DHT22;29438;50.664;10.098;2022-07-29T12:39:49;27.00;43.20
43808;DHT22;29438;50.664;10.098;2022-07-29T12:42:15;26.90;41.80
43808;DHT22;29438;50.664;10.098;2022-07-29T12:44:49;27.10;44.10
43808;DHT22;29438;50.664;10.098;2022-07-29T12:47:15;26.90;41.40
43808;DHT22;29438;50.664;10.098;2022-07-29T12:49:41;26.90;43.40
43808;DHT22;29438;50.664;10.098;2022-07-29T12:52:27;27.10;42.00
43808;DHT22;29438;50.664;10.098;2022-07-29T12:54:52;27.20;40.20
43808;DHT22;29438;50.664;10.098;2022-07-29T12:57:18;27.00;41.90
43808;DHT22;29438;50.664;10.098;2022-07-29T12:59:44;26.60;42.60
43808;DHT22;29438;50.664;10.098;2022-07-29T13:02:21;26.40;44.20
43808;DHT22;29438;50.664;10.098;2022-07-29T13:04:56;26.50;44.40
43808;DHT22;29438;50.664;10.098;2022-07-29T13:07:30;26.60;42.30
43808;DHT22;29438;50.664;10.098;2022-07-29T13:10:15;26.80;40.20
43808;DHT22;29438;50.664;10.098;2022-07-29T13:13:11;26.90;41.00
43808;DHT22;29438;50.664;10.098;2022-07-29T13:15:42;27.20;39.50
43808;DHT22;29438;50.664;10.098;2022-07-29T13:18:31;27.80;39.50
43808;DHT22;29438;50.664;10.098;2022-07-29T13:20:57;28.20;37.00
43808;DHT22;29438;50.664;10.098;2022-07-29T13:23:34;28.30;35.60
43808;DHT22;29438;50.664;10.098;2022-07-29T13:26:07;28.20;38.10
43808;DHT22;29438;50.664;10.098;2022-07-29T13:28:33;28.50;38.70
43808;DHT22;29438;50.664;10.098;2022-07-29T13:30:59;29.10;37.20
43808;DHT22;29438;50.664;10.098;2022-07-29T13:33:25;29.20;39.70
43808;DHT22;29438;50.664;10.098;2022-07-29T13:35:50;28.90;36.60
43808;DHT22;29438;50.664;10.098;2022-07-29T13:38:16;28.90;36.40
43808;DHT22;29438;50.664;10.098;2022-07-29T13:40:42;29.40;36.00
43808;DHT22;29438;50.664;10.098;2022-07-29T13:43:11;29.90;35.30
43808;DHT22;29438;50.664;10.098;2022-07-29T13:45:37;29.70;36.00
43808;DHT22;29438;50.664;10.098;2022-07-29T13:48:03;29.20;36.90
43808;DHT22;29438;50.664;10.098;2022-07-29T13:50:29;28.80;36.80
43808;DHT22;29438;50.664;10.098;2022-07-29T13:52:54;28.40;37.00
43808;DHT22;29438;50.664;10.098;2022-07-29T13:55:20;28.70;37.20
43808;DHT22;29438;50.664;10.098;2022-07-29T13:57:45;28.60;35.70
43808;DHT22;29438;50.664;10.098;2022-07-29T14:00:12;28.50;37.90
43808;DHT22;29438;50.664;10.098;2022-07-29T14:02:38;28.10;38.20
43808;DHT22;29438;50.664;10.098;2022-07-29T14:05:07;28.20;37.90
43808;DHT22;29438;50.664;10.098;2022-07-29T14:07:33;28.30;38.20
43808;DHT22;29438;50.664;10.098;2022-07-29T14:09:59;28.50;38.70
43808;DHT22;29438;50.664;10.098;2022-07-29T14:12:24;28.20;37.30
43808;DHT22;29438;50.664;10.098;2022-07-29T14:14:50;27.70;38.10
43808;DHT22;29438;50.664;10.098;2022-07-29T14:17:15;27.60;40.00
43808;DHT22;29438;50.664;10.098;2022-07-29T14:19:41;27.70;37.80
43808;DHT22;29438;50.664;10.098;2022-07-29T14:22:07;27.80;38.60
43808;DHT22;29438;50.664;10.098;2022-07-29T14:24:33;27.80;39.10
43808;DHT22;29438;50.664;10.098;2022-07-29T14:26:59;28.00;40.40
43808;DHT22;29438;50.664;10.098;2022-07-29T14:29:25;28.20;40.00
43808;DHT22;29438;50.664;10.098;2022-07-29T14:31:50;28.60;37.10
43808;DHT22;29438;50.664;10.098;2022-07-29T14:34:16;28.80;36.30
43808;DHT22;29438;50.664;10.098;2022-07-29T14:36:41;28.90;36.80
43808;DHT22;29438;50.664;10.098;2022-07-29T14:39:07;29.40;35.80
43808;DHT22;29438;50.664;10.098;2022-07-29T14:41:32;29.80;35.10
43808;DHT22;29438;50.664;10.098;2022-07-29T14:43:58;30.00;35.30
43808;DHT22;29438;50.664;10.098;2022-07-29T14:46:26;29.80;34.80
43808;DHT22;29438;50.664;10.098;2022-07-29T14:48:51;29.70;36.10
43808;DHT22;29438;50.664;10.098;2022-07-29T14:51:17;29.20;36.40
43808;DHT22;29438;50.664;10.098;2022-07-29T14:53:43;28.60;36.60
43808;DHT22;29438;50.664;10.098;2022-07-29T14:56:09;27.90;37.10
43808;DHT22;29438;50.664;10.098;2022-07-29T14:58:34;27.80;37.30
43808;DHT22;29438;50.664;10.098;2022-07-29T15:01:00;27.60;37.90
43808;DHT22;29438;50.664;10.098;2022-07-29T15:03:26;27.30;38.90
43808;DHT22;29438;50.664;10.098;2022-07-29T15:05:53;26.90;39.30
43808;DHT22;29438;50.664;10.098;2022-07-29T15:08:18;26.90;40.20
43808;DHT22;29438;50.664;10.098;2022-07-29T15:10:44;27.00;39.80
43808;DHT22;29438;50.664;10.098;2022-07-29T15:13:10;26.80;39.30
43808;DHT22;29438;50.664;10.098;2022-07-29T15:15:35;26.80;39.40
43808;DHT22;29438;50.664;10.098;2022-07-29T15:18:01;26.90;38.70
43808;DHT22;29438;50.664;10.098;2022-07-29T15:20:27;26.90;39.30
43808;DHT22;29438;50.664;10.098;2022-07-29T15:22:53;26.90;40.00
43808;DHT22;29438;50.664;10.098;2022-07-29T15:25:21;26.90;39.80
43808;DHT22;29438;50.664;10.098;2022-07-29T15:27:46;26.90;39.90
43808;DHT22;29438;50.664;10.098;2022-07-29T15:30:12;26.80;39.60
43808;DHT22;29438;50.664;10.098;2022-07-29T15:32:37;26.90;39.20
43808;DHT22;29438;50.664;10.098;2022-07-29T15:35:03;26.80;39.30
43808;DHT22;29438;50.664;10.098;2022-07-29T15:37:29;26.70;39.80
43808;DHT22;29438;50.664;10.098;2022-07-29T15:39:54;26.70;40.20
43808;DHT22;29438;50.664;10.098;2022-07-29T15:42:20;26.80;41.70
43808;DHT22;29438;50.664;10.098;2022-07-29T15:44:45;26.90;40.00
43808;DHT22;29438;50.664;10.098;2022-07-29T15:47:11;26.90;39.90
43808;DHT22;29438;50.664;10.098;2022-07-29T15:49:38;26.80;40.20
43808;DHT22;29438;50.664;10.098;2022-07-29T15:52:06;26.80;40.30